sensor_id;sensor_type;location;lat;lon;timestamp;pressure;altitude;pressure_sealevel;temperature;humidity
60489;BME280;46331;49.252;8.904;2023-02-21T00:00:21;100249.88;;;5.95;82.87
60489;BME280;46331;49.252;8.904;2023-02-21T00:01:21;100248.44;;;5.92;83.05
60489;BME280;46331;49.252;8.904;2023-02-21T00:02:20;100249.81;;;5.88;82.45
60489;BME280;46331;49.252;8.904;2023-02-21T00:03:20;100252.84;;;5.85;82.45
60489;BME280;46331;49.252;8.904;2023-02-21T00:04:19;100250.78;;;5.80;83.05
60489;BME280;46331;49.252;8.904;2023-02-21T00:05:18;100244.03;;;5.71;82.82
60489;BME280;46331;49.252;8.904;2023-02-21T00:06:17;100251.31;;;5.69;83.11
60489;BME280;46331;49.252;8.904;2023-02-21T00:07:17;100259.22;;;5.69;83.40
60489;BME280;46331;49.252;8.904;2023-02-21T00:08:17;100251.50;;;5.67;82.97
60489;BME280;46331;49.252;8.904;2023-02-21T00:09:16;100252.69;;;5.65;82.66
60489;BME280;46331;49.252;8.904;2023-02-21T00:10:15;100257.78;;;5.66;83.37
60489;BME280;46331;49.252;8.904;2023-02-21T00:11:15;100254.53;;;5.64;83.05
60489;BME280;46331;49.252;8.904;2023-02-21T00:12:14;100246.22;;;5.61;83.19
60489;BME280;46331;49.252;8.904;2023-02-21T00:13:13;100249.03;;;5.59;83.19
60489;BME280;46331;49.252;8.904;2023-02-21T00:14:12;100236.25;;;5.56;82.52
60489;BME280;46331;49.252;8.904;2023-02-21T00:15:11;100247.97;;;5.53;82.86
60489;BME280;46331;49.252;8.904;2023-02-21T00:16:15;100241.66;;;5.48;83.26
60489;BME280;46331;49.252;8.904;2023-02-21T00:17:15;100246.72;;;5.49;83.23
60489;BME280;46331;49.252;8.904;2023-02-21T00:18:14;100239.41;;;5.45;83.44
60489;BME280;46331;49.252;8.904;2023-02-21T00:19:13;100245.22;;;5.40;83.06
60489;BME280;46331;49.252;8.904;2023-02-21T00:20:12;100242.97;;;5.37;83.21
60489;BME280;46331;49.252;8.904;2023-02-21T00:21:11;100228.78;;;5.31;83.55
60489;BME280;46331;49.252;8.904;2023-02-21T00:22:10;100236.03;;;5.29;83.70
60489;BME280;46331;49.252;8.904;2023-02-21T00:23:09;100241.28;;;5.29;83.82
60489;BME280;46331;49.252;8.904;2023-02-21T00:24:13;100230.34;;;5.26;83.76
60489;BME280;46331;49.252;8.904;2023-02-21T00:25:12;100234.34;;;5.22;84.19
60489;BME280;46331;49.252;8.904;2023-02-21T00:26:16;100231.09;;;5.19;83.98
60489;BME280;46331;49.252;8.904;2023-02-21T00:27:15;100232.28;;;5.17;84.06
60489;BME280;46331;49.252;8.904;2023-02-21T00:28:15;100238.31;;;5.11;83.62
60489;BME280;46331;49.252;8.904;2023-02-21T00:29:14;100232.81;;;5.06;83.83
60489;BME280;46331;49.252;8.904;2023-02-21T00:30:14;100229.28;;;4.98;83.94
60489;BME280;46331;49.252;8.904;2023-02-21T00:31:17;100232.28;;;4.95;84.41
60489;BME280;46331;49.252;8.904;2023-02-21T00:32:17;100231.22;;;4.90;84.91
60489;BME280;46331;49.252;8.904;2023-02-21T00:33:16;100229.97;;;4.86;84.88
60489;BME280;46331;49.252;8.904;2023-02-21T00:34:15;100235.44;;;4.84;84.98
60489;BME280;46331;49.252;8.904;2023-02-21T00:35:14;100228.72;;;4.81;84.86
60489;BME280;46331;49.252;8.904;2023-02-21T00:36:16;100231.91;;;4.77;84.85
60489;BME280;46331;49.252;8.904;2023-02-21T00:37:16;100233.09;;;4.74;84.82
60489;BME280;46331;49.252;8.904;2023-02-21T00:38:16;100228.38;;;4.70;85.06
60489;BME280;46331;49.252;8.904;2023-02-21T00:39:15;100231.56;;;4.65;84.95
60489;BME280;46331;49.252;8.904;2023-02-21T00:40:14;100232.59;;;4.64;85.23
60489;BME280;46331;49.252;8.904;2023-02-21T00:41:14;100235.78;;;4.59;85.62
60489;BME280;46331;49.252;8.904;2023-02-21T00:42:13;100237.31;;;4.54;86.28
60489;BME280;46331;49.252;8.904;2023-02-21T00:43:13;100230.00;;;4.49;86.52
60489;BME280;46331;49.252;8.904;2023-02-21T00:44:12;100237.88;;;4.49;86.37
60489;BME280;46331;49.252;8.904;2023-02-21T00:45:11;100238.41;;;4.44;86.26
60489;BME280;46331;49.252;8.904;2023-02-21T00:46:12;100235.97;;;4.43;86.18
60489;BME280;46331;49.252;8.904;2023-02-21T00:47:11;100236.97;;;4.42;86.71
60489;BME280;46331;49.252;8.904;2023-02-21T00:48:10;100234.53;;;4.40;86.38
60489;BME280;46331;49.252;8.904;2023-02-21T00:49:09;100240.44;;;4.42;86.46
60489;BME280;46331;49.252;8.904;2023-02-21T00:50:08;100235.53;;;4.39;86.63
60489;BME280;46331;49.252;8.904;2023-02-21T00:51:08;100233.09;;;4.38;86.27
60489;BME280;46331;49.252;8.904;2023-02-21T00:52:08;100233.09;;;4.38;86.89
60489;BME280;46331;49.252;8.904;2023-02-21T00:53:07;100231.47;;;4.37;86.93
60489;BME280;46331;49.252;8.904;2023-02-21T00:54:06;100228.41;;;4.33;86.71
60489;BME280;46331;49.252;8.904;2023-02-21T00:55:05;100232.00;;;4.32;86.46
60489;BME280;46331;49.252;8.904;2023-02-21T00:56:04;100234.34;;;4.42;91.75
60489;BME280;46331;49.252;8.904;2023-02-21T00:57:04;100238.78;;;4.41;90.28
60489;BME280;46331;49.252;8.904;2023-02-21T00:58:03;100235.53;;;4.39;89.15
60489;BME280;46331;49.252;8.904;2023-02-21T00:59:02;100231.03;;;4.33;88.97
60489;BME280;46331;49.252;8.904;2023-02-21T01:00:03;100230.66;;;4.36;88.57
60489;BME280;46331;49.252;8.904;2023-02-21T01:01:03;100227.19;;;4.36;88.71
60489;BME280;46331;49.252;8.904;2023-02-21T01:02:03;100223.94;;;4.34;88.45
60489;BME280;46331;49.252;8.904;2023-02-21T01:03:02;100221.69;;;4.30;88.48
60489;BME280;46331;49.252;8.904;2023-02-21T01:04:02;100215.63;;;4.30;88.29
60489;BME280;46331;49.252;8.904;2023-02-21T01:05:02;100223.69;;;4.28;88.76
60489;BME280;46331;49.252;8.904;2023-02-21T01:06:01;100220.06;;;4.29;88.59
60489;BME280;46331;49.252;8.904;2023-02-21T01:07:00;100218.44;;;4.28;88.55
60489;BME280;46331;49.252;8.904;2023-02-21T01:07:59;100214.38;;;4.26;88.61
60489;BME280;46331;49.252;8.904;2023-02-21T01:08:59;100216.19;;;4.25;88.43
60489;BME280;46331;49.252;8.904;2023-02-21T01:09:58;100213.56;;;4.25;88.20
60489;BME280;46331;49.252;8.904;2023-02-21T01:10:57;100220.78;;;4.23;88.79
60489;BME280;46331;49.252;8.904;2023-02-21T01:11:57;100215.16;;;4.26;88.47
60489;BME280;46331;49.252;8.904;2023-02-21T01:12:56;100209.72;;;4.28;88.50
60489;BME280;46331;49.252;8.904;2023-02-21T01:13:55;100208.31;;;4.25;88.58
60489;BME280;46331;49.252;8.904;2023-02-21T01:14:54;100219.63;;;4.26;88.86
60489;BME280;46331;49.252;8.904;2023-02-21T01:15:54;100222.69;;;4.29;88.43
60489;BME280;46331;49.252;8.904;2023-02-21T01:16:54;100220.22;;;4.28;87.73
60489;BME280;46331;49.252;8.904;2023-02-21T01:17:53;100217.16;;;4.24;87.84
60489;BME280;46331;49.252;8.904;2023-02-21T01:18:53;100219.97;;;4.23;87.56
60489;BME280;46331;49.252;8.904;2023-02-21T01:19:52;100214.09;;;4.21;87.71
60489;BME280;46331;49.252;8.904;2023-02-21T01:20:51;100215.47;;;4.17;87.45
60489;BME280;46331;49.252;8.904;2023-02-21T01:21:50;100220.28;;;4.13;88.11
60489;BME280;46331;49.252;8.904;2023-02-21T01:22:49;100217.00;;;4.11;87.90
60489;BME280;46331;49.252;8.904;2023-02-21T01:23:49;100218.56;;;4.05;87.67
60489;BME280;46331;49.252;8.904;2023-02-21T01:24:50;100222.78;;;4.06;87.92
60489;BME280;46331;49.252;8.904;2023-02-21T01:25:49;100226.63;;;4.04;87.73
60489;BME280;46331;49.252;8.904;2023-02-21T01:26:49;100216.47;;;4.01;87.99
60489;BME280;46331;49.252;8.904;2023-02-21T01:27:48;100220.09;;;4.00;88.09
60489;BME280;46331;49.252;8.904;2023-02-21T01:28:49;100218.44;;;3.99;88.07
60489;BME280;46331;49.252;8.904;2023-02-21T01:29:49;100221.91;;;3.99;88.19
60489;BME280;46331;49.252;8.904;2023-02-21T01:30:48;100223.16;;;4.03;88.03
60489;BME280;46331;49.252;8.904;2023-02-21T01:31:48;100219.34;;;4.06;88.22
60489;BME280;46331;49.252;8.904;2023-02-21T01:32:47;100217.34;;;4.08;87.77
60489;BME280;46331;49.252;8.904;2023-02-21T01:33:46;100215.38;;;4.10;87.57
60489;BME280;46331;49.252;8.904;2023-02-21T01:34:45;100221.44;;;4.10;87.69
60489;BME280;46331;49.252;8.904;2023-02-21T01:35:45;100219.81;;;4.09;87.71
60489;BME280;46331;49.252;8.904;2023-02-21T01:36:44;100218.00;;;4.10;87.41
60489;BME280;46331;49.252;8.904;2023-02-21T01:37:43;100217.34;;;4.08;87.54
60489;BME280;46331;49.252;8.904;2023-02-21T01:38:42;100227.84;;;4.08;87.41
60489;BME280;46331;49.252;8.904;2023-02-21T01:39:43;100227.50;;;4.11;87.60
60489;BME280;46331;49.252;8.904;2023-02-21T01:40:43;100230.94;;;4.11;87.44
60489;BME280;46331;49.252;8.904;2023-02-21T01:41:42;100227.13;;;4.14;87.33
60489;BME280;46331;49.252;8.904;2023-02-21T01:42:41;100221.00;;;4.07;87.48
60489;BME280;46331;49.252;8.904;2023-02-21T01:44:01;100222.16;;;4.04;87.56
60489;BME280;46331;49.252;8.904;2023-02-21T01:46:19;100218.38;;;3.92;87.73
60489;BME280;46331;49.252;8.904;2023-02-21T01:47:19;100218.91;;;3.87;88.14
60489;BME280;46331;49.252;8.904;2023-02-21T01:48:20;100222.53;;;3.86;88.16
60489;BME280;46331;49.252;8.904;2023-02-21T01:49:20;100216.81;;;3.83;88.35
60489;BME280;46331;49.252;8.904;2023-02-21T01:50:26;100215.19;;;3.82;88.33
60489;BME280;46331;49.252;8.904;2023-02-21T01:51:31;100216.22;;;3.81;88.49
60489;BME280;46331;49.252;8.904;2023-02-21T01:52:31;100213.75;;;3.79;88.20
60489;BME280;46331;49.252;8.904;2023-02-21T01:53:30;100217.72;;;3.75;88.60
60489;BME280;46331;49.252;8.904;2023-02-21T01:54:34;100226.75;;;3.72;88.92
60489;BME280;46331;49.252;8.904;2023-02-21T01:55:38;100219.44;;;3.68;88.77
60489;BME280;46331;49.252;8.904;2023-02-21T01:56:38;100221.44;;;3.66;88.83
60489;BME280;46331;49.252;8.904;2023-02-21T01:57:39;100226.50;;;3.67;89.45
60489;BME280;46331;49.252;8.904;2023-02-21T01:58:39;100222.41;;;3.65;89.63
60489;BME280;46331;49.252;8.904;2023-02-21T01:59:39;100215.38;;;3.65;90.00
60489;BME280;46331;49.252;8.904;2023-02-21T02:00:39;100217.00;;;3.66;89.85
60489;BME280;46331;49.252;8.904;2023-02-21T02:01:50;100214.19;;;3.68;89.64
60489;BME280;46331;49.252;8.904;2023-02-21T02:03:00;100214.19;;;3.68;90.19
60489;BME280;46331;49.252;8.904;2023-02-21T02:04:01;100222.72;;;3.70;90.25
60489;BME280;46331;49.252;8.904;2023-02-21T02:05:03;100216.44;;;3.71;90.24
60489;BME280;46331;49.252;8.904;2023-02-21T02:06:08;100220.88;;;3.70;90.49
60489;BME280;46331;49.252;8.904;2023-02-21T02:07:08;100222.97;;;3.75;90.69
60489;BME280;46331;49.252;8.904;2023-02-21T02:08:08;100207.25;;;3.75;90.57
60489;BME280;46331;49.252;8.904;2023-02-21T02:09:18;100216.75;;;3.76;91.35
60489;BME280;46331;49.252;8.904;2023-02-21T02:10:17;100215.00;;;3.83;91.48
60489;BME280;46331;49.252;8.904;2023-02-21T02:11:46;100214.28;;;3.89;91.10
60489;BME280;46331;49.252;8.904;2023-02-21T02:12:56;100217.66;;;3.98;90.78
60489;BME280;46331;49.252;8.904;2023-02-21T02:14:13;100215.47;;;4.02;90.15
60489;BME280;46331;49.252;8.904;2023-02-21T02:20:28;100210.41;;;4.00;89.43
60489;BME280;46331;49.252;8.904;2023-02-21T02:22:38;100198.72;;;4.03;89.00
60489;BME280;46331;49.252;8.904;2023-02-21T02:24:43;100209.22;;;4.03;89.05
60489;BME280;46331;49.252;8.904;2023-02-21T02:27:40;100203.91;;;3.96;88.98
60489;BME280;46331;49.252;8.904;2023-02-21T02:35:10;100213.75;;;3.79;89.90
60489;BME280;46331;49.252;8.904;2023-02-21T02:36:05;100216.81;;;3.83;89.69
60489;BME280;46331;49.252;8.904;2023-02-21T02:36:52;100203.72;;;3.83;89.87
60489;BME280;46331;49.252;8.904;2023-02-21T02:38:00;100212.13;;;3.78;89.90
60489;BME280;46331;49.252;8.904;2023-02-21T02:39:08;100212.38;;;3.83;89.33
60489;BME280;46331;49.252;8.904;2023-02-21T02:41:02;100208.16;;;3.82;89.73
60489;BME280;46331;49.252;8.904;2023-02-21T02:44:23;100207.50;;;3.80;88.97
60489;BME280;46331;49.252;8.904;2023-02-21T02:46:33;100212.75;;;3.80;88.70
60489;BME280;46331;49.252;8.904;2023-02-21T02:47:18;100212.94;;;3.79;88.85
60489;BME280;46331;49.252;8.904;2023-02-21T02:49:13;100207.59;;;3.72;88.68
60489;BME280;46331;49.252;8.904;2023-02-21T02:49:56;100204.97;;;3.72;88.88
60489;BME280;46331;49.252;8.904;2023-02-21T02:50:40;100198.94;;;3.71;88.84
60489;BME280;46331;49.252;8.904;2023-02-21T02:51:21;100214.84;;;3.70;88.98
60489;BME280;46331;49.252;8.904;2023-02-21T02:52:04;100214.00;;;3.69;88.81
60489;BME280;46331;49.252;8.904;2023-02-21T02:52:53;100208.75;;;3.69;88.68
60489;BME280;46331;49.252;8.904;2023-02-21T02:53:36;100208.31;;;3.66;88.87
60489;BME280;46331;49.252;8.904;2023-02-21T02:54:18;100209.31;;;3.65;89.31
60489;BME280;46331;49.252;8.904;2023-02-21T02:55:18;100214.38;;;3.66;88.95
60489;BME280;46331;49.252;8.904;2023-02-21T02:56:02;100212.56;;;3.67;89.06
60489;BME280;46331;49.252;8.904;2023-02-21T02:56:45;100205.88;;;3.64;88.99
60489;BME280;46331;49.252;8.904;2023-02-21T02:57:29;100208.69;;;3.63;88.97
60489;BME280;46331;49.252;8.904;2023-02-21T02:58:19;100204.41;;;3.62;89.36
60489;BME280;46331;49.252;8.904;2023-02-21T02:59:05;100210.66;;;3.61;89.59
60489;BME280;46331;49.252;8.904;2023-02-21T02:59:47;100203.78;;;3.60;89.98
60489;BME280;46331;49.252;8.904;2023-02-21T03:00:31;100206.22;;;3.61;89.91
60489;BME280;46331;49.252;8.904;2023-02-21T03:03:17;100204.16;;;3.56;89.18
60489;BME280;46331;49.252;8.904;2023-02-21T03:10:04;100205.13;;;3.55;89.83
60489;BME280;46331;49.252;8.904;2023-02-21T03:10:58;100209.75;;;3.53;89.90
60489;BME280;46331;49.252;8.904;2023-02-21T03:11:49;100204.69;;;3.52;89.78
60489;BME280;46331;49.252;8.904;2023-02-21T03:12:37;100205.66;;;3.51;89.23
60489;BME280;46331;49.252;8.904;2023-02-21T03:13:52;100215.34;;;3.50;89.49
60489;BME280;46331;49.252;8.904;2023-02-21T03:14:40;100209.66;;;3.47;89.25
60489;BME280;46331;49.252;8.904;2023-02-21T03:15:44;100210.81;;;3.44;88.94
60489;BME280;46331;49.252;8.904;2023-02-21T03:16:37;100208.56;;;3.41;89.12
60489;BME280;46331;49.252;8.904;2023-02-21T03:17:23;100215.97;;;3.37;89.37
60489;BME280;46331;49.252;8.904;2023-02-21T03:18:15;100209.44;;;3.33;89.77
60489;BME280;46331;49.252;8.904;2023-02-21T03:19:16;100211.53;;;3.38;90.01
60489;BME280;46331;49.252;8.904;2023-02-21T03:19:59;100212.34;;;3.38;90.18
60489;BME280;46331;49.252;8.904;2023-02-21T03:20:46;100211.34;;;3.39;90.07
60489;BME280;46331;49.252;8.904;2023-02-21T03:21:33;100208.72;;;3.39;91.24
60489;BME280;46331;49.252;8.904;2023-02-21T03:22:20;100209.53;;;3.40;91.04
60489;BME280;46331;49.252;8.904;2023-02-21T03:23:02;100211.97;;;3.42;90.97
60489;BME280;46331;49.252;8.904;2023-02-21T03:23:45;100206.66;;;3.35;90.19
60489;BME280;46331;49.252;8.904;2023-02-21T03:24:28;100214.16;;;3.38;90.72
60489;BME280;46331;49.252;8.904;2023-02-21T03:25:10;100211.81;;;3.43;91.30
60489;BME280;46331;49.252;8.904;2023-02-21T03:25:59;100214.06;;;3.46;91.01
60489;BME280;46331;49.252;8.904;2023-02-21T03:26:44;100207.22;;;3.45;90.99
60489;BME280;46331;49.252;8.904;2023-02-21T03:27:46;100209.34;;;3.42;91.05
60489;BME280;46331;49.252;8.904;2023-02-21T03:28:36;100214.16;;;3.38;90.87
60489;BME280;46331;49.252;8.904;2023-02-21T03:29:18;100209.63;;;3.32;91.03
60489;BME280;46331;49.252;8.904;2023-02-21T03:30:02;100217.31;;;3.33;91.08
60489;BME280;46331;49.252;8.904;2023-02-21T03:30:48;100212.06;;;3.33;90.92
60489;BME280;46331;49.252;8.904;2023-02-21T03:31:36;100210.25;;;3.34;90.83
60489;BME280;46331;49.252;8.904;2023-02-21T03:32:27;100213.22;;;3.31;90.31
60489;BME280;46331;49.252;8.904;2023-02-21T03:33:10;100214.22;;;3.30;91.32
60489;BME280;46331;49.252;8.904;2023-02-21T03:33:50;100216.50;;;3.33;91.14
60489;BME280;46331;49.252;8.904;2023-02-21T03:34:31;100217.66;;;3.30;90.60
60489;BME280;46331;49.252;8.904;2023-02-21T03:35:12;100214.41;;;3.28;90.90
60489;BME280;46331;49.252;8.904;2023-02-21T03:35:58;100214.41;;;3.28;90.86
60489;BME280;46331;49.252;8.904;2023-02-21T03:36:38;100216.38;;;3.26;91.15
60489;BME280;46331;49.252;8.904;2023-02-21T03:37:36;100215.75;;;3.24;90.57
60489;BME280;46331;49.252;8.904;2023-02-21T03:38:17;100215.28;;;3.20;90.84
60489;BME280;46331;49.252;8.904;2023-02-21T03:38:57;100207.25;;;3.22;90.98
60489;BME280;46331;49.252;8.904;2023-02-21T03:39:39;100210.06;;;3.20;90.66
60489;BME280;46331;49.252;8.904;2023-02-21T03:40:31;100211.38;;;3.16;90.94
60489;BME280;46331;49.252;8.904;2023-02-21T03:41:14;100212.38;;;3.15;90.63
60489;BME280;46331;49.252;8.904;2023-02-21T03:41:55;100210.75;;;3.14;90.90
60489;BME280;46331;49.252;8.904;2023-02-21T03:42:35;100208.66;;;3.10;91.23
60489;BME280;46331;49.252;8.904;2023-02-21T03:43:16;100212.28;;;3.09;91.42
60489;BME280;46331;49.252;8.904;2023-02-21T03:44:08;100207.81;;;3.09;91.56
60489;BME280;46331;49.252;8.904;2023-02-21T03:44:49;100210.16;;;3.04;91.55
60489;BME280;46331;49.252;8.904;2023-02-21T03:45:30;100202.75;;;3.08;92.10
60489;BME280;46331;49.252;8.904;2023-02-21T03:46:31;100205.56;;;3.06;91.86
60489;BME280;46331;49.252;8.904;2023-02-21T03:47:13;100200.50;;;3.04;91.86
60489;BME280;46331;49.252;8.904;2023-02-21T03:47:53;100207.28;;;2.99;91.62
60489;BME280;46331;49.252;8.904;2023-02-21T03:48:35;100201.84;;;3.00;92.33
60489;BME280;46331;49.252;8.904;2023-02-21T03:49:24;100202.75;;;3.08;92.07
60489;BME280;46331;49.252;8.904;2023-02-21T03:50:05;100199.69;;;3.04;92.35
60489;BME280;46331;49.252;8.904;2023-02-21T03:50:49;100203.28;;;3.03;92.60
60489;BME280;46331;49.252;8.904;2023-02-21T03:51:31;100196.44;;;3.02;92.15
60489;BME280;46331;49.252;8.904;2023-02-21T03:52:11;100199.06;;;3.02;92.19
60489;BME280;46331;49.252;8.904;2023-02-21T03:52:53;100200.41;;;2.98;92.48
60489;BME280;46331;49.252;8.904;2023-02-21T03:53:33;100204.16;;;2.95;92.74
60489;BME280;46331;49.252;8.904;2023-02-21T03:54:15;100206.63;;;2.97;93.35
60489;BME280;46331;49.252;8.904;2023-02-21T03:55:00;100207.28;;;2.99;93.43
60489;BME280;46331;49.252;8.904;2023-02-21T03:55:40;100196.78;;;2.99;93.31
60489;BME280;46331;49.252;8.904;2023-02-21T03:56:27;100200.22;;;2.99;93.13
60489;BME280;46331;49.252;8.904;2023-02-21T03:57:16;100202.38;;;2.96;92.17
60489;BME280;46331;49.252;8.904;2023-02-21T03:57:59;100198.13;;;2.95;92.67
60489;BME280;46331;49.252;8.904;2023-02-21T03:58:39;100199.94;;;2.94;92.45
60489;BME280;46331;49.252;8.904;2023-02-21T03:59:21;100204.34;;;2.94;92.55
60489;BME280;46331;49.252;8.904;2023-02-21T04:00:02;100200.13;;;2.93;92.42
60489;BME280;46331;49.252;8.904;2023-02-21T04:00:45;100202.91;;;2.91;92.28
60489;BME280;46331;49.252;8.904;2023-02-21T04:01:26;100195.84;;;2.92;92.47
60489;BME280;46331;49.252;8.904;2023-02-21T04:02:08;100201.09;;;2.92;91.71
60489;BME280;46331;49.252;8.904;2023-02-21T04:02:48;100202.25;;;2.89;91.79
60489;BME280;46331;49.252;8.904;2023-02-21T04:03:49;100209.31;;;2.89;91.79
60489;BME280;46331;49.252;8.904;2023-02-21T04:04:31;100201.63;;;2.87;92.00
60489;BME280;46331;49.252;8.904;2023-02-21T04:05:19;100203.44;;;2.86;92.32
60489;BME280;46331;49.252;8.904;2023-02-21T04:06:01;100209.03;;;2.83;92.57
60489;BME280;46331;49.252;8.904;2023-02-21T04:06:43;100209.03;;;2.83;92.82
60489;BME280;46331;49.252;8.904;2023-02-21T04:07:25;100210.81;;;2.83;92.84
60489;BME280;46331;49.252;8.904;2023-02-21T04:08:06;100204.75;;;2.82;93.01
60489;BME280;46331;49.252;8.904;2023-02-21T04:08:47;100200.50;;;2.81;92.82
60489;BME280;46331;49.252;8.904;2023-02-21T04:09:28;100206.75;;;2.80;93.24
60489;BME280;46331;49.252;8.904;2023-02-21T04:10:08;100203.47;;;2.78;92.92
60489;BME280;46331;49.252;8.904;2023-02-21T04:10:54;100211.31;;;2.78;92.91
60489;BME280;46331;49.252;8.904;2023-02-21T04:11:36;100202.03;;;2.76;92.91
60489;BME280;46331;49.252;8.904;2023-02-21T04:12:17;100208.06;;;2.76;92.81
60489;BME280;46331;49.252;8.904;2023-02-21T04:12:58;100195.97;;;2.75;92.82
60489;BME280;46331;49.252;8.904;2023-02-21T04:13:38;100196.78;;;2.76;92.55
60489;BME280;46331;49.252;8.904;2023-02-21T04:14:19;100199.59;;;2.74;92.46
60489;BME280;46331;49.252;8.904;2023-02-21T04:14:59;100197.16;;;2.73;92.35
60489;BME280;46331;49.252;8.904;2023-02-21T04:15:40;100200.56;;;2.73;92.50
60489;BME280;46331;49.252;8.904;2023-02-21T04:16:21;100199.09;;;2.71;92.40
60489;BME280;46331;49.252;8.904;2023-02-21T04:17:04;100200.75;;;2.72;92.08
60489;BME280;46331;49.252;8.904;2023-02-21T04:17:44;100196.47;;;2.71;92.35
60489;BME280;46331;49.252;8.904;2023-02-21T04:18:25;100201.91;;;2.69;92.46
60489;BME280;46331;49.252;8.904;2023-02-21T04:19:07;100197.66;;;2.68;92.16
60489;BME280;46331;49.252;8.904;2023-02-21T04:19:48;100195.84;;;2.68;92.08
60489;BME280;46331;49.252;8.904;2023-02-21T04:20:29;100202.25;;;2.66;91.74
60489;BME280;46331;49.252;8.904;2023-02-21T04:21:15;100189.16;;;2.66;91.61
60489;BME280;46331;49.252;8.904;2023-02-21T04:21:57;100200.63;;;2.65;91.74
60489;BME280;46331;49.252;8.904;2023-02-21T04:22:37;100203.41;;;2.63;91.79
60489;BME280;46331;49.252;8.904;2023-02-21T04:23:20;100195.72;;;2.62;91.61
60489;BME280;46331;49.252;8.904;2023-02-21T04:24:01;100200.13;;;2.61;91.64
60489;BME280;46331;49.252;8.904;2023-02-21T04:24:48;100198.69;;;2.59;91.64
60489;BME280;46331;49.252;8.904;2023-02-21T04:25:29;100200.50;;;2.58;91.94
60489;BME280;46331;49.252;8.904;2023-02-21T04:26:15;100199.84;;;2.56;92.05
60489;BME280;46331;49.252;8.904;2023-02-21T04:27:00;100193.59;;;2.57;92.26
60489;BME280;46331;49.252;8.904;2023-02-21T04:27:43;100193.59;;;2.57;92.55
60489;BME280;46331;49.252;8.904;2023-02-21T04:28:24;100203.44;;;2.55;92.58
60489;BME280;46331;49.252;8.904;2023-02-21T04:29:05;100193.16;;;2.54;92.27
60489;BME280;46331;49.252;8.904;2023-02-21T04:29:46;100195.94;;;2.52;92.56
60489;BME280;46331;49.252;8.904;2023-02-21T04:30:30;100189.56;;;2.55;91.68
60489;BME280;46331;49.252;8.904;2023-02-21T04:31:14;100195.13;;;2.52;92.32
60489;BME280;46331;49.252;8.904;2023-02-21T04:31:55;100192.53;;;2.52;92.25
60489;BME280;46331;49.252;8.904;2023-02-21T04:32:36;100186.78;;;2.48;92.68
60489;BME280;46331;49.252;8.904;2023-02-21T04:33:22;100188.44;;;2.49;92.41
60489;BME280;46331;49.252;8.904;2023-02-21T04:34:05;100190.88;;;2.50;92.43
60489;BME280;46331;49.252;8.904;2023-02-21T04:34:45;100187.63;;;2.48;92.52
60489;BME280;46331;49.252;8.904;2023-02-21T04:35:26;100179.78;;;2.48;92.22
60489;BME280;46331;49.252;8.904;2023-02-21T04:36:08;100186.97;;;2.46;92.02
60489;BME280;46331;49.252;8.904;2023-02-21T04:36:52;100186.78;;;2.48;92.41
60489;BME280;46331;49.252;8.904;2023-02-21T04:37:33;100186.16;;;2.46;92.14
60489;BME280;46331;49.252;8.904;2023-02-21T04:38:14;100181.72;;;2.46;92.31
60489;BME280;46331;49.252;8.904;2023-02-21T04:38:55;100190.59;;;2.45;92.33
60489;BME280;46331;49.252;8.904;2023-02-21T04:39:36;100183.09;;;2.42;92.50
60489;BME280;46331;49.252;8.904;2023-02-21T04:40:16;100190.94;;;2.42;92.35
60489;BME280;46331;49.252;8.904;2023-02-21T04:40:57;100188.94;;;2.44;92.85
60489;BME280;46331;49.252;8.904;2023-02-21T04:41:38;100194.00;;;2.46;92.69
60489;BME280;46331;49.252;8.904;2023-02-21T04:42:18;100183.09;;;2.42;92.19
60489;BME280;46331;49.252;8.904;2023-02-21T04:43:00;100180.81;;;2.39;92.31
60489;BME280;46331;49.252;8.904;2023-02-21T04:43:44;100182.59;;;2.39;92.65
60489;BME280;46331;49.252;8.904;2023-02-21T04:44:24;100194.88;;;2.38;92.66
60489;BME280;46331;49.252;8.904;2023-02-21T04:45:05;100189.63;;;2.38;92.55
60489;BME280;46331;49.252;8.904;2023-02-21T04:45:46;100184.41;;;2.38;92.53
60489;BME280;46331;49.252;8.904;2023-02-21T04:46:26;100187.03;;;2.38;92.71
60489;BME280;46331;49.252;8.904;2023-02-21T04:47:07;100186.38;;;2.36;92.68
60489;BME280;46331;49.252;8.904;2023-02-21T04:47:47;100189.97;;;2.35;92.40
60489;BME280;46331;49.252;8.904;2023-02-21T04:48:28;100184.75;;;2.35;92.29
60489;BME280;46331;49.252;8.904;2023-02-21T04:49:11;100190.97;;;2.34;92.93
60489;BME280;46331;49.252;8.904;2023-02-21T04:49:52;100184.91;;;2.33;92.95
60489;BME280;46331;49.252;8.904;2023-02-21T04:50:32;100187.53;;;2.33;93.27
60489;BME280;46331;49.252;8.904;2023-02-21T04:51:15;100188.50;;;2.32;93.18
60489;BME280;46331;49.252;8.904;2023-02-21T04:51:56;100186.91;;;2.31;92.85
60489;BME280;46331;49.252;8.904;2023-02-21T04:52:36;100187.06;;;2.30;92.83
60489;BME280;46331;49.252;8.904;2023-02-21T04:53:20;100188.69;;;2.31;92.78
60489;BME280;46331;49.252;8.904;2023-02-21T04:54:00;100184.63;;;2.28;92.71
60489;BME280;46331;49.252;8.904;2023-02-21T04:54:41;100189.03;;;2.28;92.56
60489;BME280;46331;49.252;8.904;2023-02-21T04:55:21;100184.63;;;2.28;92.83
60489;BME280;46331;49.252;8.904;2023-02-21T04:56:02;100183.16;;;2.26;93.03
60489;BME280;46331;49.252;8.904;2023-02-21T04:56:43;100183.97;;;2.26;92.93
60489;BME280;46331;49.252;8.904;2023-02-21T04:57:23;100186.56;;;2.26;93.19
60489;BME280;46331;49.252;8.904;2023-02-21T04:58:04;100180.53;;;2.26;93.02
60489;BME280;46331;49.252;8.904;2023-02-21T04:58:46;100182.53;;;2.24;93.24
60489;BME280;46331;49.252;8.904;2023-02-21T04:59:26;100187.75;;;2.24;93.24
60489;BME280;46331;49.252;8.904;2023-02-21T05:00:07;100176.44;;;2.23;92.99
60489;BME280;46331;49.252;8.904;2023-02-21T05:00:48;100182.69;;;2.22;92.84
60489;BME280;46331;49.252;8.904;2023-02-21T05:01:29;100184.31;;;2.23;93.18
60489;BME280;46331;49.252;8.904;2023-02-21T05:02:10;100185.47;;;2.21;92.92
60489;BME280;46331;49.252;8.904;2023-02-21T05:02:51;100186.63;;;2.18;92.91